Buffalo Lake, North Carolina
Current Conditions -  °F | °C
As of 4:15 PM on Tuesday 21 Oct 2014 (Local Time) from KTTA Reporting Station
Scattered Clouds Scattered Clouds  
Wind Chill: 73°   Ceiling: Unl
Heat Index: 73°   Visibility: 10mi
Dew Point: 50°   Wind: 6mph
Humidity: 44%   Direction: 330°NNW
Pressure: 29.83"   Gusts: NA
Location:  35.493°N, 79.1765°W
Report Text: KTTA 212015Z AUTO 33005KT 10SM SCT065 23/10 A2983 RMK AO2 T02270098
Loading
Personal Weather Stations






























Interactive Weather Map
Tropical Storm Tracking
New forecast layout! Learn more

10-Day Weather Forecast

Advertisements
Track Severe Weather on mobile